Grissom ARB Airport
KGUS : now visible

Airfield :











YOU CAN JOIN US ON...

 
LOGIN :

Register | Disclaimer

   EN    FR    IT 

 









Legend :    VFR   Marginal VFR   IFR   Intensive IFR   Very Intensive IFR
Visi :
Ceiling :
>= 8 km
>= 3000ft
5 to 8 km
1000 to 3000 ft
1500m to 5 km
500 to 1000 ft
800 to 1500m
200 to 500 ft
< 800m
< 200 ft
Symbols :   Thunderstorms  Fog  Heavy snow  Heavy precipitations  Wind > 20 kt






- Airport Elevation : 812 ft


KGUS - Grissom ARB

CURRENT METAR :
  • 081856Z AUTO 22006KT 10SM CLR 28/16 A3015 RMK AO2 SLP209 T02770160 $

EXPIRED METARs :
  • 081756Z AUTO 18005KT 10SM CLR 27/15 A3017 RMK AO2 SLP216 T02710154 10271 20157 58011 $
  • 081656Z AUTO 24007KT 10SM CLR 26/16 A3019 RMK AO2 SLP223 T02640157 $

TAF TAF KGUS
Valid from the 08 at 11:00 until the 09 at 17:00 UTC


081100Z 0811/0917 VRB06KT 9999 FEW075 QNH3009INS TX29/0821Z TN13/0811Z
KZAU FIR / North America



MET'MAP, your aeronautical weather chart ! - Copyright ORBIFLY December 2007 - Disclaimer

ORBIFLY MET'MAP TEAM :

Programming & Development : Alexandra Zaïnal
Concept & original design : Baudouin d'Aumeries
Assistance for programming : Marc-Olivier Méhu
Technical & hardware support : Manuel Goepfert

Contact : metmap@orbifly.com




SOURCES & CREDITS :

   NOAA       Earth
Advisory